Silver Bergen — LAHO6 — position and weather

sailwx.info

Track history (hours):
 
Tides and Currents Weather Stations Pressure Air Temp Water Temp Dewpoint Dewpoint Depression Visibility Wind Speed Wind Dir Waves Ship Positions

Silver Bergen

Last reported at 2014-Oct-25 06:32 UTC. Time now 2014-Oct-25 14:42 UTC.
Position N 62°03' W 007°02'.

Length 97 m; draft 5.1 m.

Type: Cargo ship. MMSI: 257951000.

Date/timePositionNaut miles runAvg speedWind from/ knotsBaromVisibWave heightAir tempDewpointWater temp
2014-Oct-25 06:32N 62°03' W 007°02'1110.8
2014-Oct-25 05:33N 61°57' W 006°42'9 8.6
2014-Oct-25 04:34N 61°50' W 006°35'1414.0
2014-Oct-25 03:32N 61°36' W 006°41'6 0.1
2014-Oct-23 07:29N 61°31' W 006°35'36711.0
2014-Oct-21 22:12N 59°10' E 004°49'1014.6
2014-Oct-21 21:33N 59°02' E 004°58'1413.7
2014-Oct-21 20:33N 58°50' E 005°12'1612.9
2014-Oct-21 19:17N 58°36' E 005°28'913.1
2014-Oct-21 18:33N 58°28' E 005°38'1312.9
2014-Oct-21 17:34N 58°19' E 005°55'1413.9
2014-Oct-21 16:33N 58°09' E 006°14'13513.5
2014-Oct-21 06:33N 57°50' E 010°26'1110.8
2014-Oct-21 05:33N 57°48' E 010°46'1211.7
2014-Oct-21 04:33N 57°40' E 011°02'1211.8
2014-Oct-21 03:34N 57°32' E 011°18'1211.7
2014-Oct-21 02:33N 57°23' E 011°30'1211.9
2014-Oct-21 01:33N 57°12' E 011°39'1212.0
2014-Oct-21 00:33N 57°01' E 011°49'1211.8
2014-Oct-20 23:34N 56°50' E 011°58'1211.8
2014-Oct-20 22:33N 56°39' E 012°06'1111.5
2014-Oct-20 21:33N 56°29' E 012°15'1212.2
2014-Oct-20 20:34N 56°18' E 012°23'1312.9
2014-Oct-20 19:33N 56°06' E 012°34'1110.8
2014-Oct-20 18:33N 55°57' E 012°43'1212.0
2014-Oct-20 17:33N 55°45' E 012°42'1111.3
2014-Oct-20 16:33N 55°33' E 012°42'1312.9
2014-Oct-20 15:33N 55°21' E 012°40'1312.7
2014-Oct-20 14:33N 55°16' E 013°01'2813.9
2014-Oct-20 12:33N 55°14' E 013°50'1414.0
2014-Oct-20 11:33N 55°14' E 014°14'1313.1
2014-Oct-20 10:33N 55°24' E 014°29'1413.8
2014-Oct-20 09:33N 55°32' E 014°49'1513.6
2014-Oct-20 08:26N 55°39' E 015°12'1313.7
2014-Oct-20 07:30N 55°46' E 015°32'2714.0
2014-Oct-20 05:33N 55°59' E 016°15'31311.9
2014-Oct-19 03:10N 59°36' E 023°18'1013.1
2014-Oct-19 02:25N 59°39' E 023°36'8514.0
2014-Oct-18 20:22N 59°60' E 026°21'1214.0
2014-Oct-18 19:32N 60°01' E 026°44'  
Track history (hours):
 
Tides and Currents Weather Stations Pressure Air Temp Water Temp Dewpoint Dewpoint Depression Visibility Wind Speed Wind Dir Waves Ship Positions

Silver Bergen

Last reported at 2014-Oct-25 06:32 UTC. Time now 2014-Oct-25 14:42 UTC.
Position N 62°03' W 007°02'.

Length 97 m; draft 5.1 m.

Type: Cargo ship. MMSI: 257951000.

Date/timePositionNaut miles runAvg speedWind from/ knotsBaromVisibWave heightAir tempDewpointWater temp
2014-Oct-25 06:32N 62°03' W 007°02'1110.8
2014-Oct-25 05:33N 61°57' W 006°42'9 8.6
2014-Oct-25 04:34N 61°50' W 006°35'1414.0
2014-Oct-25 03:32N 61°36' W 006°41'6 0.1
2014-Oct-23 07:29N 61°31' W 006°35'36711.0
2014-Oct-21 22:12N 59°10' E 004°49'1014.6
2014-Oct-21 21:33N 59°02' E 004°58'1413.7
2014-Oct-21 20:33N 58°50' E 005°12'1612.9
2014-Oct-21 19:17N 58°36' E 005°28'913.1
2014-Oct-21 18:33N 58°28' E 005°38'1312.9
2014-Oct-21 17:34N 58°19' E 005°55'1413.9
2014-Oct-21 16:33N 58°09' E 006°14'13513.5
2014-Oct-21 06:33N 57°50' E 010°26'1110.8
2014-Oct-21 05:33N 57°48' E 010°46'1211.7
2014-Oct-21 04:33N 57°40' E 011°02'1211.8
2014-Oct-21 03:34N 57°32' E 011°18'1211.7
2014-Oct-21 02:33N 57°23' E 011°30'1211.9
2014-Oct-21 01:33N 57°12' E 011°39'1212.0
2014-Oct-21 00:33N 57°01' E 011°49'1211.8
2014-Oct-20 23:34N 56°50' E 011°58'1211.8
2014-Oct-20 22:33N 56°39' E 012°06'1111.5
2014-Oct-20 21:33N 56°29' E 012°15'1212.2
2014-Oct-20 20:34N 56°18' E 012°23'1312.9
2014-Oct-20 19:33N 56°06' E 012°34'1110.8
2014-Oct-20 18:33N 55°57' E 012°43'1212.0
2014-Oct-20 17:33N 55°45' E 012°42'1111.3
2014-Oct-20 16:33N 55°33' E 012°42'1312.9
2014-Oct-20 15:33N 55°21' E 012°40'1312.7
2014-Oct-20 14:33N 55°16' E 013°01'2813.9
2014-Oct-20 12:33N 55°14' E 013°50'1414.0
2014-Oct-20 11:33N 55°14' E 014°14'1313.1
2014-Oct-20 10:33N 55°24' E 014°29'1413.8
2014-Oct-20 09:33N 55°32' E 014°49'1513.6
2014-Oct-20 08:26N 55°39' E 015°12'1313.7
2014-Oct-20 07:30N 55°46' E 015°32'2714.0
2014-Oct-20 05:33N 55°59' E 016°15'31311.9
2014-Oct-19 03:10N 59°36' E 023°18'1013.1
2014-Oct-19 02:25N 59°39' E 023°36'8514.0
2014-Oct-18 20:22N 59°60' E 026°21'1214.0
2014-Oct-18 19:32N 60°01' E 026°44'  

Dump ship's entire track history